sensor_id;sensor_type;location;lat;lon;timestamp;P1;durP1;ratioP1;P2;durP2;ratioP2
22176;SDS011;11254;50.098;8.726;2022-08-24T00:01:15;6.13;;;3.95;;
22176;SDS011;11254;50.098;8.726;2022-08-24T00:03:44;6.95;;;3.72;;
22176;SDS011;11254;50.098;8.726;2022-08-24T00:06:13;12.07;;;4.50;;
22176;SDS011;11254;50.098;8.726;2022-08-24T00:08:42;5.72;;;3.72;;
22176;SDS011;11254;50.098;8.726;2022-08-24T00:11:11;7.20;;;4.30;;
22176;SDS011;11254;50.098;8.726;2022-08-24T00:13:39;7.28;;;4.28;;
22176;SDS011;11254;50.098;8.726;2022-08-24T00:16:08;6.53;;;4.28;;
22176;SDS011;11254;50.098;8.726;2022-08-24T00:18:38;7.38;;;4.28;;
22176;SDS011;11254;50.098;8.726;2022-08-24T00:21:07;6.90;;;4.60;;
22176;SDS011;11254;50.098;8.726;2022-08-24T00:23:35;8.93;;;4.20;;
22176;SDS011;11254;50.098;8.726;2022-08-24T00:26:03;7.82;;;4.47;;
22176;SDS011;11254;50.098;8.726;2022-08-24T00:28:32;7.43;;;4.18;;
22176;SDS011;11254;50.098;8.726;2022-08-24T00:31:01;8.02;;;4.05;;
22176;SDS011;11254;50.098;8.726;2022-08-24T00:33:33;8.70;;;4.38;;
22176;SDS011;11254;50.098;8.726;2022-08-24T00:36:03;6.70;;;3.80;;
22176;SDS011;11254;50.098;8.726;2022-08-24T00:38:31;8.38;;;3.90;;
22176;SDS011;11254;50.098;8.726;2022-08-24T00:41:01;6.15;;;4.10;;
22176;SDS011;11254;50.098;8.726;2022-08-24T00:43:30;5.97;;;3.78;;
22176;SDS011;11254;50.098;8.726;2022-08-24T00:46:03;5.70;;;3.65;;
22176;SDS011;11254;50.098;8.726;2022-08-24T00:48:41;5.25;;;3.60;;
22176;SDS011;11254;50.098;8.726;2022-08-24T00:51:15;6.35;;;3.80;;
22176;SDS011;11254;50.098;8.726;2022-08-24T00:53:48;6.80;;;3.42;;
22176;SDS011;11254;50.098;8.726;2022-08-24T00:56:20;8.65;;;3.90;;
22176;SDS011;11254;50.098;8.726;2022-08-24T00:58:51;6.35;;;3.85;;
22176;SDS011;11254;50.098;8.726;2022-08-24T01:01:23;6.35;;;3.20;;
22176;SDS011;11254;50.098;8.726;2022-08-24T01:03:53;5.80;;;3.10;;
22176;SDS011;11254;50.098;8.726;2022-08-24T01:06:24;5.82;;;3.28;;
22176;SDS011;11254;50.098;8.726;2022-08-24T01:08:53;6.53;;;3.22;;
22176;SDS011;11254;50.098;8.726;2022-08-24T01:11:23;6.53;;;3.10;;
22176;SDS011;11254;50.098;8.726;2022-08-24T01:13:59;6.38;;;3.08;;
22176;SDS011;11254;50.098;8.726;2022-08-24T01:16:28;6.10;;;2.75;;
22176;SDS011;11254;50.098;8.726;2022-08-24T01:19:16;6.63;;;3.33;;
22176;SDS011;11254;50.098;8.726;2022-08-24T01:21:56;6.32;;;2.92;;
22176;SDS011;11254;50.098;8.726;2022-08-24T01:24:31;5.80;;;2.78;;
22176;SDS011;11254;50.098;8.726;2022-08-24T01:27:01;5.20;;;3.03;;
22176;SDS011;11254;50.098;8.726;2022-08-24T01:29:33;4.68;;;2.70;;
22176;SDS011;11254;50.098;8.726;2022-08-24T01:32:03;4.72;;;2.78;;
22176;SDS011;11254;50.098;8.726;2022-08-24T01:34:33;6.22;;;3.05;;
22176;SDS011;11254;50.098;8.726;2022-08-24T01:37:01;5.22;;;2.70;;
22176;SDS011;11254;50.098;8.726;2022-08-24T01:39:33;6.05;;;2.85;;
22176;SDS011;11254;50.098;8.726;2022-08-24T01:42:03;4.45;;;2.75;;
22176;SDS011;11254;50.098;8.726;2022-08-24T01:44:33;4.70;;;2.58;;
22176;SDS011;11254;50.098;8.726;2022-08-24T01:47:03;6.22;;;2.95;;
22176;SDS011;11254;50.098;8.726;2022-08-24T01:49:35;7.38;;;3.15;;
22176;SDS011;11254;50.098;8.726;2022-08-24T01:52:05;6.78;;;2.80;;
22176;SDS011;11254;50.098;8.726;2022-08-24T01:54:35;5.93;;;3.08;;
22176;SDS011;11254;50.098;8.726;2022-08-24T01:57:09;5.63;;;2.45;;
22176;SDS011;11254;50.098;8.726;2022-08-24T01:59:42;5.13;;;2.40;;
22176;SDS011;11254;50.098;8.726;2022-08-24T02:02:12;4.57;;;2.53;;
22176;SDS011;11254;50.098;8.726;2022-08-24T02:04:42;5.85;;;2.67;;
22176;SDS011;11254;50.098;8.726;2022-08-24T02:07:11;5.88;;;2.83;;
22176;SDS011;11254;50.098;8.726;2022-08-24T02:09:40;5.75;;;2.67;;
22176;SDS011;11254;50.098;8.726;2022-08-24T02:12:09;4.05;;;2.30;;
22176;SDS011;11254;50.098;8.726;2022-08-24T02:14:37;3.92;;;2.30;;
22176;SDS011;11254;50.098;8.726;2022-08-24T02:17:06;5.78;;;3.00;;
22176;SDS011;11254;50.098;8.726;2022-08-24T02:19:35;5.40;;;2.83;;
22176;SDS011;11254;50.098;8.726;2022-08-24T02:22:05;5.50;;;2.40;;
22176;SDS011;11254;50.098;8.726;2022-08-24T02:24:36;6.50;;;2.58;;
22176;SDS011;11254;50.098;8.726;2022-08-24T02:27:06;4.10;;;2.58;;
22176;SDS011;11254;50.098;8.726;2022-08-24T02:29:34;8.88;;;2.90;;
22176;SDS011;11254;50.098;8.726;2022-08-24T02:32:03;5.72;;;2.88;;
22176;SDS011;11254;50.098;8.726;2022-08-24T02:34:32;5.68;;;2.50;;
22176;SDS011;11254;50.098;8.726;2022-08-24T02:37:00;4.43;;;2.30;;
22176;SDS011;11254;50.098;8.726;2022-08-24T02:39:28;6.13;;;2.70;;
22176;SDS011;11254;50.098;8.726;2022-08-24T02:42:00;5.57;;;2.50;;
22176;SDS011;11254;50.098;8.726;2022-08-24T02:44:29;5.65;;;2.40;;
22176;SDS011;11254;50.098;8.726;2022-08-24T02:46:57;5.60;;;2.83;;
22176;SDS011;11254;50.098;8.726;2022-08-24T02:49:25;6.00;;;2.30;;
22176;SDS011;11254;50.098;8.726;2022-08-24T02:51:55;4.38;;;2.47;;
22176;SDS011;11254;50.098;8.726;2022-08-24T02:54:23;4.47;;;2.42;;
22176;SDS011;11254;50.098;8.726;2022-08-24T02:56:51;6.28;;;2.60;;
22176;SDS011;11254;50.098;8.726;2022-08-24T02:59:20;4.85;;;2.80;;
22176;SDS011;11254;50.098;8.726;2022-08-24T03:01:50;4.82;;;2.53;;
22176;SDS011;11254;50.098;8.726;2022-08-24T03:04:19;6.43;;;2.92;;
22176;SDS011;11254;50.098;8.726;2022-08-24T03:06:47;4.82;;;2.92;;
22176;SDS011;11254;50.098;8.726;2022-08-24T03:09:16;5.28;;;3.03;;
22176;SDS011;11254;50.098;8.726;2022-08-24T03:11:44;4.65;;;2.78;;
22176;SDS011;11254;50.098;8.726;2022-08-24T03:14:14;5.13;;;3.03;;
22176;SDS011;11254;50.098;8.726;2022-08-24T03:16:43;4.88;;;3.03;;
22176;SDS011;11254;50.098;8.726;2022-08-24T03:19:13;5.28;;;3.15;;
22176;SDS011;11254;50.098;8.726;2022-08-24T03:21:43;8.82;;;2.92;;
22176;SDS011;11254;50.098;8.726;2022-08-24T03:24:11;5.40;;;3.00;;
22176;SDS011;11254;50.098;8.726;2022-08-24T03:26:40;5.72;;;2.92;;
22176;SDS011;11254;50.098;8.726;2022-08-24T03:29:10;5.78;;;3.25;;
22176;SDS011;11254;50.098;8.726;2022-08-24T03:31:41;5.55;;;3.15;;
22176;SDS011;11254;50.098;8.726;2022-08-24T03:34:09;5.57;;;2.90;;
22176;SDS011;11254;50.098;8.726;2022-08-24T03:36:40;5.05;;;3.13;;
22176;SDS011;11254;50.098;8.726;2022-08-24T03:39:13;5.50;;;3.30;;
22176;SDS011;11254;50.098;8.726;2022-08-24T03:41:41;6.65;;;3.40;;
22176;SDS011;11254;50.098;8.726;2022-08-24T03:44:09;5.70;;;3.33;;
22176;SDS011;11254;50.098;8.726;2022-08-24T03:46:38;6.00;;;3.17;;
22176;SDS011;11254;50.098;8.726;2022-08-24T03:49:07;5.35;;;2.83;;
22176;SDS011;11254;50.098;8.726;2022-08-24T03:51:36;6.25;;;2.90;;
22176;SDS011;11254;50.098;8.726;2022-08-24T03:54:07;4.85;;;2.95;;
22176;SDS011;11254;50.098;8.726;2022-08-24T03:56:36;6.25;;;2.95;;
22176;SDS011;11254;50.098;8.726;2022-08-24T03:59:05;6.35;;;2.83;;
22176;SDS011;11254;50.098;8.726;2022-08-24T04:01:38;5.35;;;3.28;;
22176;SDS011;11254;50.098;8.726;2022-08-24T04:04:07;5.78;;;2.75;;
22176;SDS011;11254;50.098;8.726;2022-08-24T04:06:36;6.60;;;2.90;;
22176;SDS011;11254;50.098;8.726;2022-08-24T04:09:11;5.57;;;2.80;;
22176;SDS011;11254;50.098;8.726;2022-08-24T04:11:41;6.47;;;2.92;;
22176;SDS011;11254;50.098;8.726;2022-08-24T04:14:13;7.18;;;2.85;;
22176;SDS011;11254;50.098;8.726;2022-08-24T04:17:19;4.65;;;2.53;;
22176;SDS011;11254;50.098;8.726;2022-08-24T04:19:47;5.50;;;3.10;;
22176;SDS011;11254;50.098;8.726;2022-08-24T04:22:29;6.03;;;2.72;;
22176;SDS011;11254;50.098;8.726;2022-08-24T04:25:00;6.43;;;2.90;;
22176;SDS011;11254;50.098;8.726;2022-08-24T04:27:36;6.90;;;2.83;;
22176;SDS011;11254;50.098;8.726;2022-08-24T04:30:06;5.57;;;2.90;;
22176;SDS011;11254;50.098;8.726;2022-08-24T04:33:12;5.60;;;2.90;;
22176;SDS011;11254;50.098;8.726;2022-08-24T04:35:41;10.43;;;3.92;;
22176;SDS011;11254;50.098;8.726;2022-08-24T04:38:13;6.30;;;2.90;;
22176;SDS011;11254;50.098;8.726;2022-08-24T04:40:55;6.47;;;2.75;;
22176;SDS011;11254;50.098;8.726;2022-08-24T04:43:26;6.40;;;2.75;;
22176;SDS011;11254;50.098;8.726;2022-08-24T04:45:57;6.72;;;3.00;;
22176;SDS011;11254;50.098;8.726;2022-08-24T04:48:26;5.40;;;3.00;;
22176;SDS011;11254;50.098;8.726;2022-08-24T04:50:54;4.90;;;2.60;;
22176;SDS011;11254;50.098;8.726;2022-08-24T04:53:28;8.85;;;3.03;;
22176;SDS011;11254;50.098;8.726;2022-08-24T04:55:58;5.15;;;3.00;;
22176;SDS011;11254;50.098;8.726;2022-08-24T04:58:28;7.60;;;2.65;;
22176;SDS011;11254;50.098;8.726;2022-08-24T05:00:58;11.48;;;4.32;;
22176;SDS011;11254;50.098;8.726;2022-08-24T05:03:26;8.73;;;3.45;;
22176;SDS011;11254;50.098;8.726;2022-08-24T05:05:54;6.13;;;3.05;;
22176;SDS011;11254;50.098;8.726;2022-08-24T05:08:22;6.50;;;3.20;;
22176;SDS011;11254;50.098;8.726;2022-08-24T05:10:50;8.38;;;3.60;;
22176;SDS011;11254;50.098;8.726;2022-08-24T05:13:20;9.57;;;3.90;;
22176;SDS011;11254;50.098;8.726;2022-08-24T05:15:48;9.30;;;3.70;;
22176;SDS011;11254;50.098;8.726;2022-08-24T05:18:17;9.70;;;4.35;;
22176;SDS011;11254;50.098;8.726;2022-08-24T05:20:45;7.63;;;3.90;;
22176;SDS011;11254;50.098;8.726;2022-08-24T05:23:14;8.70;;;3.03;;
22176;SDS011;11254;50.098;8.726;2022-08-24T05:25:45;8.57;;;3.30;;
22176;SDS011;11254;50.098;8.726;2022-08-24T05:28:13;5.22;;;2.90;;
22176;SDS011;11254;50.098;8.726;2022-08-24T05:30:42;11.25;;;3.17;;
22176;SDS011;11254;50.098;8.726;2022-08-24T05:33:11;8.88;;;2.88;;
22176;SDS011;11254;50.098;8.726;2022-08-24T05:35:39;6.35;;;2.53;;
22176;SDS011;11254;50.098;8.726;2022-08-24T05:38:10;6.30;;;2.67;;
22176;SDS011;11254;50.098;8.726;2022-08-24T05:40:38;5.90;;;2.70;;
22176;SDS011;11254;50.098;8.726;2022-08-24T05:43:07;6.03;;;2.55;;
22176;SDS011;11254;50.098;8.726;2022-08-24T05:45:35;6.45;;;2.60;;
22176;SDS011;11254;50.098;8.726;2022-08-24T05:48:08;9.07;;;3.03;;
22176;SDS011;11254;50.098;8.726;2022-08-24T05:50:55;6.40;;;2.75;;
22176;SDS011;11254;50.098;8.726;2022-08-24T05:53:28;5.68;;;2.50;;
22176;SDS011;11254;50.098;8.726;2022-08-24T05:55:57;4.90;;;2.65;;
22176;SDS011;11254;50.098;8.726;2022-08-24T05:58:28;5.40;;;2.38;;
22176;SDS011;11254;50.098;8.726;2022-08-24T06:01:04;4.38;;;2.40;;
22176;SDS011;11254;50.098;8.726;2022-08-24T06:03:35;4.97;;;2.63;;
22176;SDS011;11254;50.098;8.726;2022-08-24T06:06:06;5.18;;;2.55;;
22176;SDS011;11254;50.098;8.726;2022-08-24T06:08:36;5.07;;;2.70;;
22176;SDS011;11254;50.098;8.726;2022-08-24T06:11:08;5.40;;;2.47;;
22176;SDS011;11254;50.098;8.726;2022-08-24T06:13:37;4.50;;;2.50;;
22176;SDS011;11254;50.098;8.726;2022-08-24T06:16:06;4.65;;;2.50;;
22176;SDS011;11254;50.098;8.726;2022-08-24T06:18:53;7.47;;;2.90;;
22176;SDS011;11254;50.098;8.726;2022-08-24T06:21:24;6.28;;;2.70;;
22176;SDS011;11254;50.098;8.726;2022-08-24T06:23:55;4.75;;;2.33;;
22176;SDS011;11254;50.098;8.726;2022-08-24T06:26:23;5.63;;;2.67;;
22176;SDS011;11254;50.098;8.726;2022-08-24T06:29:15;4.85;;;2.63;;
22176;SDS011;11254;50.098;8.726;2022-08-24T06:31:45;4.35;;;2.55;;
22176;SDS011;11254;50.098;8.726;2022-08-24T06:34:22;4.32;;;2.28;;
22176;SDS011;11254;50.098;8.726;2022-08-24T06:36:52;6.10;;;2.35;;
22176;SDS011;11254;50.098;8.726;2022-08-24T06:39:22;5.93;;;2.83;;
22176;SDS011;11254;50.098;8.726;2022-08-24T06:41:52;4.65;;;2.58;;
22176;SDS011;11254;50.098;8.726;2022-08-24T06:44:28;4.63;;;2.45;;
22176;SDS011;11254;50.098;8.726;2022-08-24T06:47:14;6.65;;;2.67;;
22176;SDS011;11254;50.098;8.726;2022-08-24T06:49:44;7.28;;;2.38;;
22176;SDS011;11254;50.098;8.726;2022-08-24T06:52:12;4.93;;;2.58;;
22176;SDS011;11254;50.098;8.726;2022-08-24T06:54:40;5.50;;;2.50;;
22176;SDS011;11254;50.098;8.726;2022-08-24T06:57:09;5.22;;;2.70;;
22176;SDS011;11254;50.098;8.726;2022-08-24T06:59:37;4.95;;;2.50;;
22176;SDS011;11254;50.098;8.726;2022-08-24T07:02:09;4.95;;;2.70;;
22176;SDS011;11254;50.098;8.726;2022-08-24T07:04:41;5.63;;;2.13;;
22176;SDS011;11254;50.098;8.726;2022-08-24T07:07:30;5.93;;;2.35;;
22176;SDS011;11254;50.098;8.726;2022-08-24T07:09:59;6.43;;;3.03;;
22176;SDS011;11254;50.098;8.726;2022-08-24T07:12:28;4.22;;;2.47;;
22176;SDS011;11254;50.098;8.726;2022-08-24T07:14:56;4.90;;;2.55;;
22176;SDS011;11254;50.098;8.726;2022-08-24T07:17:25;6.93;;;2.35;;
22176;SDS011;11254;50.098;8.726;2022-08-24T07:19:54;4.05;;;2.35;;
22176;SDS011;11254;50.098;8.726;2022-08-24T07:22:48;7.85;;;2.20;;
22176;SDS011;11254;50.098;8.726;2022-08-24T07:25:17;4.80;;;2.47;;
22176;SDS011;11254;50.098;8.726;2022-08-24T07:27:46;4.38;;;2.30;;
22176;SDS011;11254;50.098;8.726;2022-08-24T07:30:15;6.05;;;2.45;;
22176;SDS011;11254;50.098;8.726;2022-08-24T07:32:54;4.82;;;2.38;;
22176;SDS011;11254;50.098;8.726;2022-08-24T07:35:26;5.78;;;2.55;;
22176;SDS011;11254;50.098;8.726;2022-08-24T07:37:55;4.55;;;2.35;;
22176;SDS011;11254;50.098;8.726;2022-08-24T07:40:24;7.60;;;2.42;;
22176;SDS011;11254;50.098;8.726;2022-08-24T07:42:54;6.07;;;2.95;;
22176;SDS011;11254;50.098;8.726;2022-08-24T07:45:24;6.00;;;2.20;;
22176;SDS011;11254;50.098;8.726;2022-08-24T07:47:54;5.00;;;2.42;;
22176;SDS011;11254;50.098;8.726;2022-08-24T07:50:37;6.93;;;3.03;;
22176;SDS011;11254;50.098;8.726;2022-08-24T07:53:05;7.75;;;2.60;;
22176;SDS011;11254;50.098;8.726;2022-08-24T07:55:40;6.15;;;2.47;;
22176;SDS011;11254;50.098;8.726;2022-08-24T07:58:12;4.78;;;2.63;;
22176;SDS011;11254;50.098;8.726;2022-08-24T08:00:44;5.18;;;2.55;;
22176;SDS011;11254;50.098;8.726;2022-08-24T08:03:13;5.35;;;2.60;;
22176;SDS011;11254;50.098;8.726;2022-08-24T08:05:44;4.57;;;2.50;;
22176;SDS011;11254;50.098;8.726;2022-08-24T08:08:12;4.50;;;2.50;;
22176;SDS011;11254;50.098;8.726;2022-08-24T08:10:41;4.40;;;2.45;;
22176;SDS011;11254;50.098;8.726;2022-08-24T08:13:09;4.38;;;2.50;;
22176;SDS011;11254;50.098;8.726;2022-08-24T08:15:37;7.07;;;2.78;;
22176;SDS011;11254;50.098;8.726;2022-08-24T08:18:08;6.30;;;2.38;;
22176;SDS011;11254;50.098;8.726;2022-08-24T08:20:39;4.22;;;2.40;;
22176;SDS011;11254;50.098;8.726;2022-08-24T08:23:09;5.50;;;2.58;;
22176;SDS011;11254;50.098;8.726;2022-08-24T08:26:05;4.35;;;2.30;;
22176;SDS011;11254;50.098;8.726;2022-08-24T08:29:01;4.35;;;2.17;;
22176;SDS011;11254;50.098;8.726;2022-08-24T08:31:31;4.28;;;2.20;;
22176;SDS011;11254;50.098;8.726;2022-08-24T08:34:01;4.32;;;2.42;;
22176;SDS011;11254;50.098;8.726;2022-08-24T08:36:29;4.78;;;2.13;;
22176;SDS011;11254;50.098;8.726;2022-08-24T08:39:00;4.57;;;2.28;;
22176;SDS011;11254;50.098;8.726;2022-08-24T08:41:44;4.43;;;2.70;;
22176;SDS011;11254;50.098;8.726;2022-08-24T08:44:37;5.45;;;2.20;;
22176;SDS011;11254;50.098;8.726;2022-08-24T08:50:25;6.90;;;2.40;;
22176;SDS011;11254;50.098;8.726;2022-08-24T08:53:07;7.38;;;2.38;;
22176;SDS011;11254;50.098;8.726;2022-08-24T08:56:01;5.28;;;2.10;;
22176;SDS011;11254;50.098;8.726;2022-08-24T08:58:38;5.00;;;2.58;;
22176;SDS011;11254;50.098;8.726;2022-08-24T09:01:34;4.10;;;2.33;;
22176;SDS011;11254;50.098;8.726;2022-08-24T09:04:33;8.23;;;2.70;;
22176;SDS011;11254;50.098;8.726;2022-08-24T09:07:24;10.32;;;2.67;;
22176;SDS011;11254;50.098;8.726;2022-08-24T09:10:16;6.55;;;2.40;;
22176;SDS011;11254;50.098;8.726;2022-08-24T09:13:00;6.43;;;2.75;;
22176;SDS011;11254;50.098;8.726;2022-08-24T09:15:55;5.63;;;3.03;;
22176;SDS011;11254;50.098;8.726;2022-08-24T09:18:40;5.35;;;2.80;;
22176;SDS011;11254;50.098;8.726;2022-08-24T09:27:40;5.43;;;2.58;;
22176;SDS011;11254;50.098;8.726;2022-08-24T09:30:20;5.03;;;2.72;;
22176;SDS011;11254;50.098;8.726;2022-08-24T09:36:41;4.78;;;2.90;;
22176;SDS011;11254;50.098;8.726;2022-08-24T09:39:25;4.07;;;2.53;;
22176;SDS011;11254;50.098;8.726;2022-08-24T09:45:11;5.80;;;2.58;;
22176;SDS011;11254;50.098;8.726;2022-08-24T09:54:09;5.43;;;2.55;;
22176;SDS011;11254;50.098;8.726;2022-08-24T09:57:27;4.25;;;2.30;;
22176;SDS011;11254;50.098;8.726;2022-08-24T10:00:28;6.53;;;2.85;;
22176;SDS011;11254;50.098;8.726;2022-08-24T10:03:13;7.93;;;2.75;;
22176;SDS011;11254;50.098;8.726;2022-08-24T10:06:14;4.65;;;2.55;;
22176;SDS011;11254;50.098;8.726;2022-08-24T10:08:56;5.65;;;2.40;;
22176;SDS011;11254;50.098;8.726;2022-08-24T10:11:35;8.10;;;2.80;;
22176;SDS011;11254;50.098;8.726;2022-08-24T10:14:12;6.95;;;2.50;;
22176;SDS011;11254;50.098;8.726;2022-08-24T10:16:51;7.20;;;2.55;;
22176;SDS011;11254;50.098;8.726;2022-08-24T10:19:38;5.28;;;2.20;;
22176;SDS011;11254;50.098;8.726;2022-08-24T10:22:23;4.43;;;2.50;;
22176;SDS011;11254;50.098;8.726;2022-08-24T10:25:05;7.18;;;2.47;;
22176;SDS011;11254;50.098;8.726;2022-08-24T10:27:47;4.35;;;2.50;;
22176;SDS011;11254;50.098;8.726;2022-08-24T10:33:20;10.23;;;3.00;;
22176;SDS011;11254;50.098;8.726;2022-08-24T10:36:01;5.97;;;2.67;;
22176;SDS011;11254;50.098;8.726;2022-08-24T10:39:07;4.78;;;2.55;;
22176;SDS011;11254;50.098;8.726;2022-08-24T10:42:16;6.85;;;2.40;;
22176;SDS011;11254;50.098;8.726;2022-08-24T10:45:41;8.27;;;2.80;;
22176;SDS011;11254;50.098;8.726;2022-08-24T10:48:46;7.53;;;2.42;;
22176;SDS011;11254;50.098;8.726;2022-08-24T10:51:58;4.93;;;2.40;;
22176;SDS011;11254;50.098;8.726;2022-08-24T10:54:55;5.13;;;2.78;;
22176;SDS011;11254;50.098;8.726;2022-08-24T10:57:44;4.82;;;2.42;;
22176;SDS011;11254;50.098;8.726;2022-08-24T11:00:20;3.67;;;2.30;;
22176;SDS011;11254;50.098;8.726;2022-08-24T11:03:04;6.40;;;2.60;;
22176;SDS011;11254;50.098;8.726;2022-08-24T11:05:36;5.72;;;2.45;;
22176;SDS011;11254;50.098;8.726;2022-08-24T11:08:07;4.78;;;2.13;;
22176;SDS011;11254;50.098;8.726;2022-08-24T11:10:43;5.05;;;2.65;;
22176;SDS011;11254;50.098;8.726;2022-08-24T11:13:19;5.28;;;2.15;;
22176;SDS011;11254;50.098;8.726;2022-08-24T11:15:50;6.53;;;2.30;;
22176;SDS011;11254;50.098;8.726;2022-08-24T11:18:19;3.92;;;2.30;;
22176;SDS011;11254;50.098;8.726;2022-08-24T11:20:50;5.25;;;2.60;;
22176;SDS011;11254;50.098;8.726;2022-08-24T11:23:21;4.82;;;2.00;;
22176;SDS011;11254;50.098;8.726;2022-08-24T11:25:57;4.35;;;2.30;;
22176;SDS011;11254;50.098;8.726;2022-08-24T11:28:31;4.60;;;2.28;;
22176;SDS011;11254;50.098;8.726;2022-08-24T11:31:03;5.35;;;2.38;;
22176;SDS011;11254;50.098;8.726;2022-08-24T11:33:46;5.47;;;2.28;;
22176;SDS011;11254;50.098;8.726;2022-08-24T11:36:20;4.78;;;2.50;;
22176;SDS011;11254;50.098;8.726;2022-08-24T11:39:02;4.30;;;2.80;;
22176;SDS011;11254;50.098;8.726;2022-08-24T11:41:40;8.32;;;2.55;;
22176;SDS011;11254;50.098;8.726;2022-08-24T11:44:20;4.25;;;2.60;;
22176;SDS011;11254;50.098;8.726;2022-08-24T11:46:59;4.47;;;3.00;;
22176;SDS011;11254;50.098;8.726;2022-08-24T11:49:38;4.90;;;3.00;;
22176;SDS011;11254;50.098;8.726;2022-08-24T11:52:14;5.80;;;2.78;;
22176;SDS011;11254;50.098;8.726;2022-08-24T11:54:50;4.82;;;2.85;;
22176;SDS011;11254;50.098;8.726;2022-08-24T11:57:27;5.22;;;3.00;;
22176;SDS011;11254;50.098;8.726;2022-08-24T12:00:02;4.82;;;2.70;;
22176;SDS011;11254;50.098;8.726;2022-08-24T12:02:38;4.95;;;2.72;;
22176;SDS011;11254;50.098;8.726;2022-08-24T12:05:17;5.20;;;2.55;;
22176;SDS011;11254;50.098;8.726;2022-08-24T12:07:56;5.80;;;2.80;;
22176;SDS011;11254;50.098;8.726;2022-08-24T12:10:36;8.15;;;2.72;;
22176;SDS011;11254;50.098;8.726;2022-08-24T12:13:10;5.93;;;2.88;;
22176;SDS011;11254;50.098;8.726;2022-08-24T12:15:53;4.53;;;2.90;;
22176;SDS011;11254;50.098;8.726;2022-08-24T12:18:32;3.95;;;2.50;;
22176;SDS011;11254;50.098;8.726;2022-08-24T12:21:13;7.13;;;2.53;;
22176;SDS011;11254;50.098;8.726;2022-08-24T12:23:46;5.93;;;2.40;;
22176;SDS011;11254;50.098;8.726;2022-08-24T12:26:19;5.55;;;2.78;;
22176;SDS011;11254;50.098;8.726;2022-08-24T12:28:58;7.57;;;3.00;;
22176;SDS011;11254;50.098;8.726;2022-08-24T12:31:33;5.40;;;2.97;;
22176;SDS011;11254;50.098;8.726;2022-08-24T12:34:08;5.03;;;2.72;;
22176;SDS011;11254;50.098;8.726;2022-08-24T12:36:43;8.00;;;2.72;;
22176;SDS011;11254;50.098;8.726;2022-08-24T12:39:23;6.35;;;3.20;;
22176;SDS011;11254;50.098;8.726;2022-08-24T12:41:56;4.20;;;2.75;;
22176;SDS011;11254;50.098;8.726;2022-08-24T12:44:34;5.75;;;2.92;;
22176;SDS011;11254;50.098;8.726;2022-08-24T12:47:09;6.25;;;3.03;;
22176;SDS011;11254;50.098;8.726;2022-08-24T12:49:40;4.63;;;2.67;;
22176;SDS011;11254;50.098;8.726;2022-08-24T12:52:18;4.75;;;2.80;;
22176;SDS011;11254;50.098;8.726;2022-08-24T12:55:18;5.43;;;2.90;;
22176;SDS011;11254;50.098;8.726;2022-08-24T12:57:57;4.43;;;2.80;;
22176;SDS011;11254;50.098;8.726;2022-08-24T13:00:52;5.53;;;2.88;;
22176;SDS011;11254;50.098;8.726;2022-08-24T13:03:24;5.72;;;2.92;;
22176;SDS011;11254;50.098;8.726;2022-08-24T13:06:01;4.18;;;2.63;;
22176;SDS011;11254;50.098;8.726;2022-08-24T13:08:35;4.32;;;2.80;;
22176;SDS011;11254;50.098;8.726;2022-08-24T13:11:10;8.18;;;3.03;;
22176;SDS011;11254;50.098;8.726;2022-08-24T13:13:44;5.75;;;2.97;;
22176;SDS011;11254;50.098;8.726;2022-08-24T13:19:31;5.30;;;2.88;;
22176;SDS011;11254;50.098;8.726;2022-08-24T13:25:25;5.75;;;2.67;;
22176;SDS011;11254;50.098;8.726;2022-08-24T13:28:29;7.57;;;3.20;;
22176;SDS011;11254;50.098;8.726;2022-08-24T13:31:18;4.53;;;2.78;;
22176;SDS011;11254;50.098;8.726;2022-08-24T13:33:52;5.18;;;2.50;;
22176;SDS011;11254;50.098;8.726;2022-08-24T13:42:37;6.68;;;2.50;;
22176;SDS011;11254;50.098;8.726;2022-08-24T13:45:22;4.30;;;2.67;;
22176;SDS011;11254;50.098;8.726;2022-08-24T13:47:56;5.57;;;3.17;;
22176;SDS011;11254;50.098;8.726;2022-08-24T13:50:31;4.68;;;2.78;;
22176;SDS011;11254;50.098;8.726;2022-08-24T13:53:12;6.18;;;2.55;;
22176;SDS011;11254;50.098;8.726;2022-08-24T13:56:17;4.30;;;2.67;;
22176;SDS011;11254;50.098;8.726;2022-08-24T13:59:00;4.03;;;2.60;;
22176;SDS011;11254;50.098;8.726;2022-08-24T14:01:37;6.60;;;2.72;;
22176;SDS011;11254;50.098;8.726;2022-08-24T14:04:29;5.95;;;2.60;;
22176;SDS011;11254;50.098;8.726;2022-08-24T14:07:13;8.38;;;2.90;;
22176;SDS011;11254;50.098;8.726;2022-08-24T14:09:51;5.97;;;2.60;;
22176;SDS011;11254;50.098;8.726;2022-08-24T14:12:40;6.07;;;2.50;;
22176;SDS011;11254;50.098;8.726;2022-08-24T14:15:18;6.10;;;2.88;;
22176;SDS011;11254;50.098;8.726;2022-08-24T14:17:56;4.53;;;2.70;;
22176;SDS011;11254;50.098;8.726;2022-08-24T14:23:43;4.07;;;2.35;;
22176;SDS011;11254;50.098;8.726;2022-08-24T14:29:25;7.78;;;2.95;;
22176;SDS011;11254;50.098;8.726;2022-08-24T14:35:02;4.72;;;2.70;;
22176;SDS011;11254;50.098;8.726;2022-08-24T14:37:49;5.00;;;2.92;;
22176;SDS011;11254;50.098;8.726;2022-08-24T14:40:26;6.95;;;2.88;;
22176;SDS011;11254;50.098;8.726;2022-08-24T14:43:02;4.70;;;2.70;;
22176;SDS011;11254;50.098;8.726;2022-08-24T14:45:57;6.82;;;2.65;;
22176;SDS011;11254;50.098;8.726;2022-08-24T14:48:37;5.60;;;3.22;;
22176;SDS011;11254;50.098;8.726;2022-08-24T14:51:18;4.63;;;2.70;;
22176;SDS011;11254;50.098;8.726;2022-08-24T14:54:01;6.05;;;2.70;;
22176;SDS011;11254;50.098;8.726;2022-08-24T14:56:44;5.80;;;2.90;;
22176;SDS011;11254;50.098;8.726;2022-08-24T14:59:22;4.70;;;2.45;;
22176;SDS011;11254;50.098;8.726;2022-08-24T15:02:09;5.35;;;2.63;;
22176;SDS011;11254;50.098;8.726;2022-08-24T15:05:05;5.38;;;2.38;;
22176;SDS011;11254;50.098;8.726;2022-08-24T15:07:52;4.18;;;2.60;;
22176;SDS011;11254;50.098;8.726;2022-08-24T15:10:23;4.68;;;2.60;;
22176;SDS011;11254;50.098;8.726;2022-08-24T15:12:56;5.22;;;2.97;;
22176;SDS011;11254;50.098;8.726;2022-08-24T15:15:30;5.07;;;2.72;;
22176;SDS011;11254;50.098;8.726;2022-08-24T15:18:03;5.45;;;2.40;;
22176;SDS011;11254;50.098;8.726;2022-08-24T15:20:56;5.25;;;2.53;;
22176;SDS011;11254;50.098;8.726;2022-08-24T15:23:37;4.97;;;2.60;;
22176;SDS011;11254;50.098;8.726;2022-08-24T15:26:16;4.28;;;2.78;;
22176;SDS011;11254;50.098;8.726;2022-08-24T15:28:50;5.70;;;2.72;;
22176;SDS011;11254;50.098;8.726;2022-08-24T15:31:23;4.95;;;2.45;;
22176;SDS011;11254;50.098;8.726;2022-08-24T15:33:55;9.20;;;2.85;;
22176;SDS011;11254;50.098;8.726;2022-08-24T15:36:25;4.60;;;2.40;;
22176;SDS011;11254;50.098;8.726;2022-08-24T15:38:56;4.55;;;2.53;;
22176;SDS011;11254;50.098;8.726;2022-08-24T15:41:26;3.88;;;2.25;;
22176;SDS011;11254;50.098;8.726;2022-08-24T15:43:57;5.85;;;2.65;;
22176;SDS011;11254;50.098;8.726;2022-08-24T15:46:29;6.70;;;2.50;;
22176;SDS011;11254;50.098;8.726;2022-08-24T15:49:00;5.40;;;2.55;;
22176;SDS011;11254;50.098;8.726;2022-08-24T15:51:34;4.65;;;2.50;;
22176;SDS011;11254;50.098;8.726;2022-08-24T15:54:16;5.40;;;2.30;;
22176;SDS011;11254;50.098;8.726;2022-08-24T15:56:58;4.43;;;2.60;;
22176;SDS011;11254;50.098;8.726;2022-08-24T15:59:28;5.25;;;2.72;;
22176;SDS011;11254;50.098;8.726;2022-08-24T16:02:16;5.15;;;2.33;;
22176;SDS011;11254;50.098;8.726;2022-08-24T16:05:00;4.25;;;2.47;;
22176;SDS011;11254;50.098;8.726;2022-08-24T16:10:37;5.68;;;2.78;;
22176;SDS011;11254;50.098;8.726;2022-08-24T16:13:11;3.63;;;2.17;;
22176;SDS011;11254;50.098;8.726;2022-08-24T16:15:47;6.07;;;2.70;;
22176;SDS011;11254;50.098;8.726;2022-08-24T16:18:17;5.38;;;2.40;;
22176;SDS011;11254;50.098;8.726;2022-08-24T16:20:46;6.25;;;2.58;;
22176;SDS011;11254;50.098;8.726;2022-08-24T16:23:21;4.47;;;2.42;;
22176;SDS011;11254;50.098;8.726;2022-08-24T16:28:56;4.65;;;2.65;;
22176;SDS011;11254;50.098;8.726;2022-08-24T16:34:20;5.82;;;2.65;;